Time;durP1;ratioP1;P1;durP2;ratioP2;P2;SDS_P1;SDS_P2;PMS_P1;PMS_P2;Temp;Humidity;BMP_temperature;BMP_pressure;BME280_temperature;BME280_humidity;BME280_pressure;Samples;Min_cycle;Max_cycle;Signal;HPM_P1;HPM_P2
2022/04/25 00:02:16;;;;;;;10.68;6.45;;;;;;;9.94;66.29;99751.27;1702182;84;21147;-65
2022/04/25 00:04:46;;;;;;;9.85;6.37;;;;;;;9.94;66.15;99753.16;1758423;80;21188;-65
2022/04/25 00:07:17;;;;;;;9.48;6.70;;;;;;;9.94;66.13;99747.69;1785012;80;21110;-66
2022/04/25 00:09:49;;;;;;;9.68;6.28;;;;;;;9.95;66.13;99746.63;1784940;80;21111;-65
2022/04/25 00:12:20;;;;;;;8.53;5.85;;;;;;;9.94;66.11;99739.47;1784987;80;21123;-65
2022/04/25 00:14:50;;;;;;;7.83;5.62;;;;;;;9.94;66.13;99737.58;1785130;79;21562;-66
2022/04/25 00:17:20;;;;;;;8.60;5.60;;;;;;;9.94;66.16;99738.95;1785219;80;21131;-67
2022/04/25 00:19:50;;;;;;;9.28;5.70;;;;;;;9.93;66.25;99741.89;1701943;84;21206;-65
2022/04/25 00:22:21;;;;;;;8.78;5.92;;;;;;;9.91;66.11;99734.42;1679069;84;21115;-63
2022/04/25 00:24:51;;;;;;;9.78;6.17;;;;;;;9.87;66.14;99736.73;1701987;84;21139;-65
2022/04/25 00:27:22;;;;;;;10.85;6.03;;;;;;;9.82;66.19;99737.36;1701948;84;21095;-65
2022/04/25 00:29:55;;;;;;;8.90;6.22;;;;;;;9.79;66.27;99739.15;1702042;83;21178;-65
2022/04/25 00:32:24;;;;;;;8.98;5.70;;;;;;;9.78;66.32;99744.30;1702009;83;21142;-66
2022/04/25 00:34:55;;;;;;;10.23;6.00;;;;;;;9.74;66.52;99748.48;1701816;84;21166;-65
2022/04/25 00:37:26;;;;;;;9.68;5.90;;;;;;;9.70;66.71;99747.20;1702085;83;21139;-63
2022/04/25 00:39:57;;;;;;;9.53;5.90;;;;;;;9.69;66.79;99740.05;1701856;84;21151;-66
2022/04/25 00:42:27;;;;;;;11.30;6.22;;;;;;;9.67;66.88;99742.67;1701872;84;21127;-66
2022/04/25 00:45:04;;;;;;;9.35;6.17;;;;;;;9.66;67.02;99734.16;1760826;80;21598;-66
2022/04/25 00:47:30;;;;;;;10.50;7.03;;;;;;;9.64;67.16;99732.16;1784850;79;21617;-65
2022/04/25 00:50:00;;;;;;;10.43;6.22;;;;;;;9.63;67.32;99734.57;1726749;80;21532;-65
2022/04/25 00:52:30;;;;;;;12.05;7.03;;;;;;;9.63;67.44;99731.84;1785096;80;21108;-64
2022/04/25 00:55:01;;;;;;;9.63;6.78;;;;;;;9.62;67.54;99728.26;1784208;80;21150;-65
2022/04/25 00:57:31;;;;;;;8.60;6.17;;;;;;;9.62;67.66;99721.42;1788210;80;21543;-66
2022/04/25 01:00:00;;;;;;;10.35;6.03;;;;;;;9.64;67.75;99719.84;1770860;80;21178;-65
2022/04/25 01:02:30;;;;;;;9.38;6.22;;;;;;;9.63;67.79;99710.80;1788336;80;21539;-66
2022/04/25 01:05:01;;;;;;;10.63;6.40;;;;;;;9.64;67.87;99703.44;1736608;82;21154;-66
2022/04/25 01:07:36;;;;;;;9.88;6.55;;;;;;;9.65;68.00;99703.23;1661461;85;21764;-66
2022/04/25 01:10:06;;;;;;;8.80;6.03;;;;;;;9.66;68.12;99700.81;1688821;82;21135;-67
2022/04/25 01:12:37;;;;;;;10.95;6.33;;;;;;;9.66;68.21;99699.44;1651453;87;21137;-64
2022/04/25 01:15:10;;;;;;;9.83;6.70;;;;;;;9.63;68.28;99699.86;1651386;87;21108;-66
2022/04/25 01:17:41;;;;;;;9.78;6.62;;;;;;;9.58;68.37;99696.91;1629598;87;21585;-65
2022/04/25 01:20:10;;;;;;;10.72;6.28;;;;;;;9.55;68.52;99693.22;1651345;87;21156;-65
2022/04/25 01:27:15;;;;;;;10.08;6.60;;;;;;;9.52;68.65;99688.17;1651485;87;21215;-65
2022/04/25 01:28:23;;;;;;;10.08;7.05;;;;;;;9.52;69.01;99688.17;1598090;90;21298;-65
2022/04/25 01:30:54;;;;;;;10.05;6.47;;;;;;;9.51;69.10;99690.59;1697372;82;21158;-65
2022/04/25 01:33:23;;;;;;;8.65;6.42;;;;;;;9.51;69.23;99683.75;1737027;82;21155;-66
2022/04/25 01:35:56;;;;;;;11.12;6.83;;;;;;;9.50;69.37;99683.43;1736492;82;21174;-66
2022/04/25 01:38:27;;;;;;;11.15;6.47;;;;;;;9.49;69.52;99674.91;1736515;82;21147;-64
2022/04/25 01:40:59;;;;;;;11.73;6.65;;;;;;;9.48;69.65;99667.77;1736559;82;21123;-64
2022/04/25 01:43:28;;;;;;;9.33;6.20;;;;;;;9.48;69.68;99678.17;1756160;80;21174;-65
2022/04/25 01:45:59;;;;;;;8.40;6.15;;;;;;;9.50;69.70;99676.07;1788327;79;22256;-67
2022/04/25 01:48:29;;;;;;;9.38;6.35;;;;;;;9.53;69.64;99669.34;1788337;80;21115;-64
2022/04/25 01:50:59;;;;;;;11.95;6.40;;;;;;;9.54;69.64;99670.50;1788335;80;21119;-66
2022/04/25 01:53:30;;;;;;;8.70;6.05;;;;;;;9.55;69.60;99663.14;1770916;80;21100;-65
2022/04/25 01:56:01;;;;;;;9.55;6.03;;;;;;;9.59;69.58;99676.71;1788206;80;21104;-64
2022/04/25 01:58:30;;;;;;;10.25;7.17;;;;;;;9.59;69.52;99676.71;1788555;80;21581;-64
2022/04/25 02:00:59;;;;;;;8.88;6.37;;;;;;;9.61;69.48;99678.71;1771296;80;21110;-66
2022/04/25 02:03:31;;;;;;;8.63;6.12;;;;;;;9.63;69.42;99681.23;1788481;79;21107;-63
2022/04/25 02:06:02;;;;;;;7.78;5.72;;;;;;;9.64;69.37;99677.45;1788447;80;21546;-64
2022/04/25 02:08:31;;;;;;;9.23;6.00;;;;;;;9.64;69.31;99671.45;1788336;79;21546;-64
2022/04/25 02:13:51;;;;;;;8.50;5.90;;;;;;;9.63;69.36;99671.66;1788480;79;21189;-64
2022/04/25 02:16:22;;;;;;;8.30;5.97;;;;;;;9.61;69.43;99681.97;1771150;80;21503;-66
2022/04/25 02:18:53;;;;;;;8.85;5.97;;;;;;;9.61;69.42;99679.23;1788291;80;21546;-67
2022/04/25 02:21:23;;;;;;;8.15;6.05;;;;;;;9.60;69.40;99687.97;1788860;80;21193;-67
2022/04/25 02:23:54;;;;;;;10.25;6.25;;;;;;;9.60;69.42;99688.49;1771297;80;21134;-65
2022/04/25 02:26:25;;;;;;;8.93;5.78;;;;;;;9.57;69.44;99684.28;1788349;79;21559;-65
2022/04/25 02:28:55;;;;;;;10.25;5.70;;;;;;;9.57;69.47;99682.91;1788275;80;21123;-65
2022/04/25 02:31:25;;;;;;;6.87;5.22;;;;;;;9.55;69.47;99675.45;1788269;80;21111;-66
2022/04/25 02:33:56;;;;;;;8.90;6.05;;;;;;;9.52;69.56;99671.77;1788332;80;21135;-66
2022/04/25 02:36:25;;;;;;;8.18;5.87;;;;;;;9.51;69.67;99675.55;1788354;80;21103;-67
2022/04/25 02:38:54;;;;;;;9.00;6.15;;;;;;;9.50;69.72;99669.77;1788624;80;21190;-66
2022/04/25 02:41:23;;;;;;;8.00;5.95;;;;;;;9.49;69.81;99671.66;1788458;80;21178;-66
2022/04/25 02:43:54;;;;;;;11.57;5.28;;;;;;;9.49;69.82;99670.28;1788518;80;21151;-67
2022/04/25 02:46:24;;;;;;;9.55;5.78;;;;;;;9.46;69.89;99657.56;1788321;80;21594;-66
2022/04/25 02:48:55;;;;;;;9.93;6.10;;;;;;;9.43;69.94;99657.45;1788274;80;21151;-66
2022/04/25 02:51:25;;;;;;;7.83;5.35;;;;;;;9.38;70.06;99646.30;1788319;79;21147;-67
2022/04/25 02:53:54;;;;;;;9.58;6.08;;;;;;;9.36;70.20;99651.66;1788261;80;21107;-66
2022/04/25 02:56:25;;;;;;;12.47;6.50;;;;;;;9.34;70.41;99659.22;1784285;80;21521;-65
2022/04/25 02:58:54;;;;;;;7.72;5.60;;;;;;;9.29;70.54;99650.28;1774504;80;21147;-66
2022/04/25 03:01:24;;;;;;;8.55;6.00;;;;;;;9.29;70.60;99651.65;1774527;81;21625;-67
2022/04/25 03:03:54;;;;;;;9.73;5.30;;;;;;;9.28;70.67;99660.05;1774721;81;21127;-66
2022/04/25 03:06:25;;;;;;;8.95;5.87;;;;;;;9.29;70.67;99664.47;1774584;80;21601;-66
2022/04/25 03:08:55;;;;;;;8.23;5.53;;;;;;;9.30;70.67;99660.16;1774625;79;21574;-65
2022/04/25 03:11:25;;;;;;;9.68;6.00;;;;;;;9.33;70.71;99658.38;1774719;81;21127;-66
2022/04/25 03:13:56;;;;;;;9.28;6.78;;;;;;;9.34;70.69;99648.29;1774636;80;21131;-64
2022/04/25 03:16:29;;;;;;;9.50;6.30;;;;;;;9.34;70.68;99645.55;1774635;80;21123;-65
2022/04/25 03:19:01;;;;;;;9.20;6.20;;;;;;;9.37;70.71;99639.67;1774757;81;21103;-66
2022/04/25 03:21:33;;;;;;;10.95;7.28;;;;;;;9.41;70.66;99630.00;1774673;79;21191;-65
2022/04/25 03:24:05;;;;;;;9.65;6.37;;;;;;;9.44;70.66;99617.28;1774544;79;21111;-65
2022/04/25 03:26:34;;;;;;;9.88;6.40;;;;;;;9.49;70.51;99625.69;1774724;81;21151;-65
2022/04/25 03:29:03;;;;;;;9.40;6.33;;;;;;;9.51;70.37;99624.43;1774571;81;21084;-65
2022/04/25 03:31:34;;;;;;;8.85;6.30;;;;;;;9.53;70.39;99627.80;1730838;83;21167;-65
2022/04/25 03:34:05;;;;;;;7.92;5.20;;;;;;;9.57;70.32;99624.64;1654540;86;21171;-67
2022/04/25 03:36:34;;;;;;;8.83;5.97;;;;;;;9.62;70.14;99625.70;1731092;83;21250;-67
2022/04/25 03:39:04;;;;;;;8.23;5.58;;;;;;;9.68;69.89;99625.38;1730964;82;21191;-66
2022/04/25 03:41:35;;;;;;;8.05;5.62;;;;;;;9.76;69.46;99615.09;1731246;83;21104;-65
2022/04/25 03:44:06;;;;;;;8.15;5.40;;;;;;;9.83;69.14;99598.14;1654720;86;21167;-65
2022/04/25 03:46:36;;;;;;;8.20;5.58;;;;;;;9.90;68.64;99602.23;1730911;83;21155;-65
2022/04/25 03:49:07;;;;;;;7.05;5.35;;;;;;;9.97;68.47;99603.06;1645685;84;21119;-66
2022/04/25 03:51:36;;;;;;;7.08;5.28;;;;;;;10.06;68.25;99606.42;1774618;80;21119;-66
2022/04/25 03:54:07;;;;;;;8.18;5.50;;;;;;;10.11;67.91;99601.14;1774626;80;21092;-65
2022/04/25 03:59:24;;;;;;;7.85;5.17;;;;;;;10.23;67.47;99598.09;1765553;79;21751;-65
2022/04/25 04:01:55;;;;;;;8.08;5.25;;;;;;;10.28;67.13;99590.07;1774499;80;21516;-66
2022/04/25 04:04:25;;;;;;;7.85;5.53;;;;;;;10.33;66.93;99593.00;1774756;79;21149;-67
2022/04/25 04:06:57;;;;;;;8.88;5.30;;;;;;;10.39;66.75;99594.03;1774626;81;21602;-67
2022/04/25 04:09:45;;;;;;;7.65;5.42;;;;;;;10.44;66.57;99606.58;1763983;81;21151;-67
2022/04/25 04:12:15;;;;;;;12.98;5.50;;;;;;;10.48;66.33;99610.04;1774595;81;21568;-65
2022/04/25 04:14:46;;;;;;;7.42;5.22;;;;;;;10.54;66.17;99604.75;1764212;81;21740;-65
2022/04/25 04:17:17;;;;;;;6.80;5.08;;;;;;;10.59;66.00;99598.09;1774597;80;21143;-66
2022/04/25 04:19:48;;;;;;;7.83;5.60;;;;;;;10.66;65.71;99592.05;1763645;81;21127;-68
2022/04/25 04:22:20;;;;;;;7.55;5.10;;;;;;;10.71;65.65;99588.97;1774724;79;21281;-65
2022/04/25 04:24:49;;;;;;;8.58;5.45;;;;;;;10.80;65.40;99599.14;1762560;81;21557;-66
2022/04/25 04:27:20;;;;;;;6.50;5.05;;;;;;;10.89;65.15;99600.58;1774570;81;21195;-65
2022/04/25 04:29:51;;;;;;;6.67;4.97;;;;;;;10.95;64.83;99590.63;1774566;80;21583;-66
2022/04/25 04:32:19;;;;;;;7.58;5.67;;;;;;;11.01;64.44;99585.11;1774715;81;21207;-66
2022/04/25 04:34:48;;;;;;;8.33;5.37;;;;;;;11.03;64.22;99584.36;1774530;81;21154;-65
2022/04/25 04:37:17;;;;;;;8.88;5.78;;;;;;;11.08;64.12;99576.88;1774493;81;21080;-66
2022/04/25 04:39:47;;;;;;;10.78;5.78;;;;;;;11.14;63.72;99575.98;1774495;79;21574;-66
2022/04/25 04:42:18;;;;;;;6.67;4.83;;;;;;;11.19;63.59;99567.09;1774380;80;21155;-66
2022/04/25 04:44:47;;;;;;;6.65;5.08;;;;;;;11.25;63.07;99567.58;1774419;81;21106;-65
2022/04/25 04:47:17;;;;;;;7.42;5.22;;;;;;;11.31;62.62;99568.90;1774448;81;21108;-67
2022/04/25 04:49:46;;;;;;;9.28;4.65;;;;;;;11.38;62.38;99577.91;1774361;81;21112;-65
2022/04/25 04:52:16;;;;;;;7.90;5.03;;;;;;;11.46;62.10;99580.91;1774433;81;21488;-67
2022/04/25 04:54:46;;;;;;;6.95;5.03;;;;;;;11.51;61.41;99583.82;1774418;81;21016;-66
2022/04/25 04:57:15;;;;;;;7.97;5.10;;;;;;;11.59;61.25;99584.07;1779371;80;21082;-66
2022/04/25 04:59:45;;;;;;;7.33;4.85;;;;;;;11.66;60.89;99573.34;1770887;80;21031;-67
2022/04/25 05:02:17;;;;;;;8.40;5.05;;;;;;;11.73;60.68;99572.78;1788478;80;21450;-67
2022/04/25 05:04:49;;;;;;;6.90;4.87;;;;;;;11.80;60.41;99563.67;1771230;80;21016;-67
2022/04/25 05:07:18;;;;;;;6.70;4.92;;;;;;;11.86;60.19;99566.89;1788252;80;20979;-66
2022/04/25 05:09:49;;;;;;;6.90;4.87;;;;;;;11.93;59.71;99564.38;1787896;80;21004;-67
2022/04/25 05:12:21;;;;;;;7.08;4.70;;;;;;;11.99;59.50;99562.63;1771388;80;21020;-67
2022/04/25 05:14:51;;;;;;;5.58;4.05;;;;;;;12.06;59.33;99558.75;1788443;79;21066;-66
2022/04/25 05:17:20;;;;;;;7.25;4.72;;;;;;;12.17;59.23;99561.80;1788493;80;21015;-66
2022/04/25 05:19:51;;;;;;;7.83;5.40;;;;;;;12.24;58.98;99560.66;1706781;84;21047;-69
2022/04/25 05:22:20;;;;;;;6.72;4.65;;;;;;;12.31;58.61;99564.17;1706921;83;21085;-67
2022/04/25 05:24:50;;;;;;;7.30;4.40;;;;;;;12.38;58.41;99567.70;1706983;84;21016;-66
2022/04/25 05:27:19;;;;;;;9.10;4.83;;;;;;;12.43;58.25;99565.64;1707012;84;21091;-68
2022/04/25 05:29:50;;;;;;;6.17;3.90;;;;;;;12.51;58.22;99568.08;1707093;84;21043;-67
2022/04/25 05:32:21;;;;;;;9.58;4.87;;;;;;;12.58;57.99;99559.75;1707119;84;21071;-67
2022/04/25 05:34:50;;;;;;;6.30;4.55;;;;;;;12.65;57.73;99559.13;1707074;84;21040;-66
2022/04/25 05:37:20;;;;;;;9.78;5.08;;;;;;;12.70;57.69;99561.48;1726173;80;21047;-67
2022/04/25 05:39:50;;;;;;;11.60;8.73;;;;;;;12.75;57.63;99559.41;1788280;80;21031;-66
2022/04/25 05:42:19;;;;;;;9.35;4.97;;;;;;;12.81;57.65;99572.22;1788334;80;21000;-67
2022/04/25 05:44:49;;;;;;;6.70;4.85;;;;;;;12.87;57.64;99549.83;1788192;80;21428;-67
2022/04/25 05:47:17;;;;;;;8.50;5.10;;;;;;;12.94;57.62;99552.79;1788098;79;21138;-67
2022/04/25 05:52:37;;;;;;;8.75;5.08;;;;;;;13.10;57.39;99539.47;1773767;80;20988;-66
2022/04/25 05:55:06;;;;;;;6.67;4.75;;;;;;;13.17;57.24;99533.36;1788539;80;21047;-65
2022/04/25 05:57:37;;;;;;;7.00;4.62;;;;;;;13.23;57.18;99537.38;1788129;80;21447;-67
2022/04/25 06:00:10;;;;;;;14.60;5.78;;;;;;;13.30;57.17;99525.73;1788449;80;21051;-67
2022/04/25 06:02:43;;;;;;;6.30;5.00;;;;;;;13.38;57.00;99524.55;1788338;80;21012;-67
2022/04/25 06:05:15;;;;;;;8.15;4.58;;;;;;;13.49;57.18;99523.72;1788348;80;21010;-67
2022/04/25 06:07:47;;;;;;;7.62;4.95;;;;;;;13.57;56.97;99520.61;1788379;80;21035;-66
2022/04/25 06:10:20;;;;;;;9.70;5.22;;;;;;;13.68;57.02;99508.50;1771657;80;21423;-68
2022/04/25 06:12:52;;;;;;;8.85;5.15;;;;;;;13.75;56.84;99505.92;1698216;82;21044;-67
2022/04/25 06:15:27;;;;;;;7.17;4.50;;;;;;;13.85;56.76;99503.94;1712889;82;21043;-67
2022/04/25 06:17:58;;;;;;;6.67;4.30;;;;;;;13.93;56.72;99507.16;1690279;82;21786;-66
2022/04/25 06:20:30;;;;;;;7.90;4.80;;;;;;;14.00;56.55;99504.28;1712431;82;21036;-64
2022/04/25 06:23:06;;;;;;;6.95;4.70;;;;;;;14.07;56.52;99508.28;1736619;82;21486;-65
2022/04/25 06:25:37;;;;;;;9.13;5.08;;;;;;;14.15;56.37;99504.61;1736646;82;21030;-67
2022/04/25 06:28:06;;;;;;;5.75;4.22;;;;;;;14.22;56.36;99498.96;1736673;82;21027;-66
2022/04/25 06:30:37;;;;;;;8.30;4.47;;;;;;;14.32;56.16;99485.42;1711862;82;21140;-66
2022/04/25 06:33:09;;;;;;;8.33;4.83;;;;;;;14.44;55.95;99490.39;1736556;82;21035;-67
2022/04/25 06:35:38;;;;;;;8.93;4.58;;;;;;;14.62;56.04;99490.73;1712753;82;21033;-66
2022/04/25 06:38:09;;;;;;;12.75;4.83;;;;;;;14.83;55.78;99481.77;1776637;79;21024;-67
2022/04/25 06:40:40;;;;;;;8.35;4.30;;;;;;;15.08;55.68;99481.95;1736502;82;21019;-67
2022/04/25 06:43:10;;;;;;;5.62;4.50;;;;;;;15.36;55.24;99477.73;1661328;86;21176;-66
2022/04/25 06:45:39;;;;;;;18.17;5.78;;;;;;;15.64;54.83;99472.70;1712541;82;21448;-70
2022/04/25 06:48:10;;;;;;;8.48;5.42;;;;;;;15.94;54.67;99470.92;1712848;82;21073;-68
2022/04/25 06:50:41;;;;;;;8.73;5.08;;;;;;;16.23;54.22;99466.05;1661494;86;21491;-66
2022/04/25 06:53:13;;;;;;;24.98;5.97;;;;;;;16.47;53.76;99464.70;1736617;82;21480;-67
2022/04/25 06:55:44;;;;;;;9.48;4.87;;;;;;;16.67;53.24;99464.12;1661506;86;21476;-65
2022/04/25 06:58:13;;;;;;;8.28;4.78;;;;;;;16.88;52.97;99456.03;1745455;80;21020;-67
2022/04/25 07:00:46;;;;;;;9.78;4.90;;;;;;;17.08;52.69;99453.48;1782812;80;21035;-66
2022/04/25 07:03:17;;;;;;;7.22;4.45;;;;;;;17.31;52.50;99453.67;1782763;80;21036;-67
2022/04/25 07:05:48;;;;;;;6.67;4.35;;;;;;;17.51;52.23;99446.89;1783140;80;20972;-67
2022/04/25 07:08:20;;;;;;;6.53;4.60;;;;;;;17.72;51.78;99441.83;1783019;80;20996;-65
2022/04/25 07:10:51;;;;;;;9.08;4.55;;;;;;;17.90;51.45;99440.55;1782701;80;21004;-66
2022/04/25 07:13:21;;;;;;;5.62;4.70;;;;;;;18.11;51.05;99442.03;1783030;80;21039;-67
2022/04/25 07:15:51;;;;;;;6.75;4.20;;;;;;;18.32;50.69;99429.94;1782704;80;21044;-67
2022/04/25 07:18:22;;;;;;;11.83;4.87;;;;;;;18.51;50.11;99439.43;1728773;83;21483;-66
2022/04/25 07:20:53;;;;;;;10.05;4.47;;;;;;;18.63;50.23;99430.89;1728883;83;21478;-67
2022/04/25 07:28:53;;;;;;;9.50;4.72;;;;;;;18.79;49.89;99419.27;1671465;86;21064;-67
2022/04/25 07:31:23;;;;;;;7.75;4.60;;;;;;;18.83;50.11;99421.20;1651033;86;21695;-67
2022/04/25 07:33:56;;;;;;;6.62;4.53;;;;;;;18.91;50.40;99411.53;1649409;86;21099;-67
2022/04/25 07:36:24;;;;;;;8.60;4.95;;;;;;;19.00;50.35;99411.26;1697203;83;21072;-67
2022/04/25 07:38:55;;;;;;;7.37;4.25;;;;;;;19.08;50.30;99415.42;1654318;87;21069;-67
2022/04/25 07:41:27;;;;;;;8.28;4.42;;;;;;;19.11;50.32;99407.37;1705344;83;21553;-66
2022/04/25 07:43:58;;;;;;;9.05;4.30;;;;;;;19.11;50.28;99417.64;1654076;87;21609;-67
2022/04/25 07:46:29;;;;;;;8.08;3.90;;;;;;;19.05;50.41;99407.09;1728701;83;21040;-66
2022/04/25 07:48:59;;;;;;;4.75;3.85;;;;;;;18.97;50.58;99409.04;1653922;87;21096;-65
2022/04/25 07:51:29;;;;;;;6.72;4.12;;;;;;;18.86;50.78;99405.98;1728668;83;21096;-66
2022/04/25 07:53:58;;;;;;;8.75;3.87;;;;;;;18.73;51.21;99392.06;1700394;83;21070;-66
2022/04/25 07:56:28;;;;;;;5.87;4.10;;;;;;;18.66;51.54;99396.49;1782719;80;21440;-66
2022/04/25 07:58:58;;;;;;;7.12;3.87;;;;;;;18.63;51.63;99401.20;1762882;80;21055;-66
2022/04/25 08:01:29;;;;;;;7.85;3.80;;;;;;;18.63;51.68;99389.27;1699588;84;21248;-66
2022/04/25 08:04:00;;;;;;;6.12;3.52;;;;;;;18.66;51.80;99393.72;1644211;87;21112;-67
2022/04/25 08:06:29;;;;;;;6.95;4.20;;;;;;;18.78;51.52;99397.61;1644296;87;21093;-67
2022/04/25 08:09:03;;;;;;;9.03;3.72;;;;;;;18.91;51.29;99402.66;1644117;87;21536;-66
2022/04/25 08:11:32;;;;;;;7.15;4.17;;;;;;;19.03;50.73;99403.77;1592360;90;21445;-68
2022/04/25 08:19:30;;;;;;;8.40;3.83;;;;;;;19.32;50.25;99411.80;1592527;89;21144;-69
2022/04/25 08:22:00;;;;;;;5.40;3.20;;;;;;;19.38;50.10;99416.80;1593955;87;21055;-68
2022/04/25 08:24:32;;;;;;;5.87;3.58;;;;;;;19.49;50.17;99414.84;1642429;87;21086;-66
2022/04/25 08:27:05;;;;;;;8.05;3.60;;;;;;;19.61;49.80;99409.88;1688187;84;21073;-66
2022/04/25 08:29:38;;;;;;;5.60;3.60;;;;;;;19.71;49.53;99411.80;1720786;80;21001;-66
2022/04/25 08:32:08;;;;;;;6.53;3.40;;;;;;;19.79;49.38;99409.27;1792399;79;21035;-71
2022/04/25 08:34:41;;;;;;;4.53;3.00;;;;;;;19.90;48.98;99419.24;1744405;80;20994;-68
2022/04/25 08:37:11;;;;;;;5.90;3.40;;;;;;;20.04;48.77;99407.52;1751726;81;21021;-67
2022/04/25 08:39:40;;;;;;;7.83;3.27;;;;;;;20.14;48.68;99391.62;1751598;80;21013;-70
2022/04/25 08:42:10;;;;;;;9.20;3.50;;;;;;;20.31;48.23;99405.20;1761369;80;21012;-71
2022/04/25 08:44:41;;;;;;;4.58;2.98;;;;;;;20.44;47.92;99400.42;1776307;80;21086;-69
2022/04/25 08:47:11;;;;;;;7.03;3.00;;;;;;;20.63;47.47;99401.98;1751230;80;21483;-68
2022/04/25 08:49:41;;;;;;;6.22;2.95;;;;;;;20.76;47.02;99391.59;1781077;80;21020;-68
2022/04/25 08:52:12;;;;;;;4.80;2.95;;;;;;;20.82;46.41;99390.47;1780929;80;21161;-67
2022/04/25 08:54:43;;;;;;;7.10;2.90;;;;;;;20.86;46.72;99399.06;1686550;84;21048;-67
2022/04/25 08:57:17;;;;;;;4.95;2.77;;;;;;;20.99;46.15;99378.91;1780922;80;21697;-66
2022/04/25 08:59:46;;;;;;;7.03;3.10;;;;;;;21.11;45.62;99386.33;1757023;80;21037;-68
2022/04/25 09:02:18;;;;;;;5.28;3.02;;;;;;;21.21;45.38;99386.80;1701516;83;21003;-65
2022/04/25 09:04:50;;;;;;;6.95;2.70;;;;;;;21.27;45.45;99391.23;1701313;83;21544;-69
2022/04/25 09:07:19;;;;;;;5.67;2.92;;;;;;;21.33;45.16;99388.67;1701516;83;21467;-68
2022/04/25 09:09:48;;;;;;;5.20;2.62;;;;;;;21.37;45.17;99388.91;1678672;84;21790;-68
2022/04/25 09:12:19;;;;;;;6.60;2.85;;;;;;;21.34;45.26;99392.28;1701637;84;21011;-70
2022/04/25 09:14:49;;;;;;;5.45;3.20;;;;;;;21.26;45.31;99404.89;1678877;84;21054;-69
2022/04/25 09:17:21;;;;;;;6.83;3.15;;;;;;;21.09;45.61;99405.29;1675773;84;21070;-68
2022/04/25 09:19:50;;;;;;;4.42;3.08;;;;;;;20.93;46.10;99418.23;1701630;84;21030;-69
2022/04/25 09:22:37;;;;;;;8.58;4.05;;;;;;;20.78;46.30;99419.14;1680159;85;21035;-69
2022/04/25 09:25:28;;;;;;;9.30;3.75;;;;;;;20.63;46.66;99426.20;1662397;85;21111;-68
2022/04/25 09:28:12;;;;;;;7.00;3.33;;;;;;;20.44;47.36;99422.69;1702893;84;21576;-70
2022/04/25 09:30:59;;;;;;;6.75;4.10;;;;;;;20.31;48.00;99430.23;1688251;84;21079;-68
2022/04/25 09:33:30;;;;;;;5.75;4.22;;;;;;;20.15;48.84;99431.39;1661034;84;21047;-70
2022/04/25 09:36:04;;;;;;;8.45;4.05;;;;;;;20.04;49.31;99431.16;1702955;84;21106;-68
2022/04/25 09:38:37;;;;;;;7.87;4.12;;;;;;;19.95;49.62;99431.73;1703146;84;21044;-69
2022/04/25 09:41:13;;;;;;;5.08;3.70;;;;;;;19.91;49.78;99438.98;1737893;82;21054;-66
2022/04/25 09:43:44;;;;;;;7.47;4.27;;;;;;;19.82;49.96;99437.89;1750365;81;20990;-68
2022/04/25 09:46:16;;;;;;;5.05;3.62;;;;;;;19.70;50.06;99438.76;1736682;82;21725;-67
2022/04/25 09:49:03;;;;;;;6.10;3.80;;;;;;;19.60;50.25;99436.83;1750058;80;21473;-69
2022/04/25 09:51:33;;;;;;;6.07;3.93;;;;;;;19.55;50.67;99440.17;1758803;80;21041;-69
2022/04/25 09:54:04;;;;;;;9.23;4.60;;;;;;;19.53;50.85;99436.28;1737002;81;21090;-67
2022/04/25 09:56:40;;;;;;;9.50;4.87;;;;;;;19.53;51.12;99440.45;1736932;81;21442;-70
2022/04/25 09:59:08;;;;;;;7.70;4.87;;;;;;;19.54;51.05;99435.73;1737020;81;21019;-69
2022/04/25 10:01:40;;;;;;;6.75;4.12;;;;;;;19.53;51.14;99434.06;1716453;81;21051;-72
2022/04/25 10:04:34;;;;;;;8.58;4.62;;;;;;;19.50;51.11;99438.73;1716718;82;21047;-69
2022/04/25 10:07:06;;;;;;;7.03;4.25;;;;;;;19.47;51.14;99434.56;1717324;82;21046;-69
2022/04/25 10:09:37;;;;;;;6.47;4.53;;;;;;;19.42;51.26;99442.07;1737015;81;20995;-69
2022/04/25 10:12:09;;;;;;;6.12;4.10;;;;;;;19.36;51.37;99439.02;1602750;89;21138;-67
2022/04/25 10:14:39;;;;;;;6.20;4.12;;;;;;;19.30;51.59;99441.80;1582759;89;21073;-69
2022/04/25 10:17:11;;;;;;;7.08;4.17;;;;;;;19.22;51.79;99435.41;1602921;89;21022;-72
2022/04/25 10:19:43;;;;;;;7.17;4.33;;;;;;;19.09;52.18;99437.36;1603275;87;21093;-68
2022/04/25 10:22:13;;;;;;;6.67;4.33;;;;;;;19.03;52.49;99440.41;1603041;88;21556;-69
2022/04/25 10:24:43;;;;;;;8.58;4.20;;;;;;;18.98;52.78;99445.41;1602887;89;21149;-69
2022/04/25 10:27:15;;;;;;;6.55;4.35;;;;;;;18.92;52.97;99446.51;1590057;89;21052;-68
2022/04/25 10:29:49;;;;;;;6.17;4.08;;;;;;;18.87;53.33;99440.40;1653099;81;21063;-72
2022/04/25 10:32:23;;;;;;;6.97;4.42;;;;;;;18.85;53.51;99438.98;1731447;81;21078;-73
2022/04/25 10:35:04;;;;;;;7.45;4.05;;;;;;;18.83;53.62;99442.58;1778619;80;21027;-71
2022/04/25 10:37:39;;;;;;;8.25;5.12;;;;;;;18.84;53.65;99434.53;1779299;80;21628;-72
2022/04/25 10:40:12;;;;;;;8.00;4.72;;;;;;;18.87;53.42;99434.02;1779892;80;21051;-70
2022/04/25 10:46:07;;;;;;;10.90;5.83;;;;;;;18.91;53.57;99450.39;1779256;80;21408;-71
2022/04/25 10:49:09;;;;;;;29.35;7.10;;;;;;;18.96;53.67;99444.30;1742665;82;22114;-70
2022/04/25 10:51:39;;;;;;;9.53;5.17;;;;;;;19.04;53.53;99448.47;1710746;84;21033;-71
2022/04/25 10:54:12;;;;;;;9.03;5.60;;;;;;;19.11;53.09;99440.69;1710867;84;21008;-71
2022/04/25 10:57:11;;;;;;;9.90;4.67;;;;;;;19.14;52.86;99446.25;1710868;84;21035;-70
2022/04/25 10:59:42;;;;;;;7.83;5.25;;;;;;;19.14;52.75;99440.14;1710865;84;21040;-67
2022/04/25 11:02:26;;;;;;;8.30;4.90;;;;;;;19.17;52.74;99442.36;1698772;84;21110;-73
2022/04/25 11:05:15;;;;;;;8.63;4.97;;;;;;;19.24;52.45;99447.08;1711130;84;21035;-74
2022/04/25 11:07:45;;;;;;;9.33;4.87;;;;;;;19.31;52.37;99448.19;1655714;84;21431;-74
2022/04/25 11:10:42;;;;;;;10.43;5.25;;;;;;;19.39;51.93;99439.85;1710954;84;21031;-73
2022/04/25 11:13:13;;;;;;;7.50;4.83;;;;;;;19.46;51.66;99441.79;1730443;82;21044;-76
2022/04/25 11:15:49;;;;;;;9.38;4.65;;;;;;;19.54;51.36;99441.29;1742755;82;21052;-74
2022/04/25 11:21:07;;;;;;;7.50;4.15;;;;;;;19.72;50.51;99446.25;1742718;82;21036;-71
2022/04/25 11:23:49;;;;;;;10.58;5.12;;;;;;;19.77;49.83;99440.69;1742742;82;21541;-73
2022/04/25 11:26:30;;;;;;;12.93;4.60;;;;;;;19.79;49.91;99436.23;1751159;81;21083;-73
2022/04/25 11:29:09;;;;;;;9.53;4.22;;;;;;;19.83;50.09;99442.34;1765052;81;21513;-72
2022/04/25 11:31:39;;;;;;;7.37;3.90;;;;;;;19.89;50.17;99445.38;1765040;81;21068;-74
2022/04/25 11:34:11;;;;;;;7.50;4.00;;;;;;;19.94;49.44;99448.70;1753688;80;21028;-63
2022/04/25 11:36:43;;;;;;;7.15;5.00;;;;;;;19.94;49.24;99439.80;1743417;81;21488;-75
2022/04/25 11:42:06;;;;;;;7.95;4.50;;;;;;;19.94;49.66;99455.09;1719171;82;21035;-73
2022/04/25 11:44:40;;;;;;;11.50;4.22;;;;;;;19.93;49.27;99456.21;1743746;82;21099;-72
2022/04/25 11:47:08;;;;;;;9.83;4.90;;;;;;;19.89;49.61;99453.72;1715545;82;21051;-67
2022/04/25 11:49:41;;;;;;;8.53;4.00;;;;;;;19.82;49.96;99457.35;1743118;82;21039;-73
2022/04/25 11:52:17;;;;;;;12.10;4.72;;;;;;;19.78;50.15;99449.86;1743477;81;21463;-65
2022/04/25 11:54:47;;;;;;;9.93;5.83;;;;;;;19.75;50.27;99458.20;1743655;82;21455;-72
2022/04/25 11:57:16;;;;;;;13.08;5.30;;;;;;;19.74;50.36;99439.86;1743561;82;21040;-71
2022/04/25 11:59:47;;;;;;;9.08;4.60;;;;;;;19.75;50.47;99433.19;1714966;82;21067;-74
2022/04/25 12:02:16;;;;;;;11.68;4.87;;;;;;;19.80;50.41;99426.78;1743453;82;21456;-74
2022/04/25 12:04:47;;;;;;;10.75;5.08;;;;;;;19.85;50.42;99435.11;1743474;81;21486;-75
2022/04/25 12:07:19;;;;;;;9.23;5.25;;;;;;;19.85;50.32;99427.59;1743538;82;21019;-75
2022/04/25 12:15:35;;;;;;;7.05;4.20;;;;;;;19.94;50.01;99430.63;1743546;81;21451;-74
2022/04/25 12:18:18;;;;;;;8.08;3.95;;;;;;;19.98;49.82;99424.78;1743701;82;21022;-74
2022/04/25 12:20:50;;;;;;;9.00;4.28;;;;;;;20.01;49.67;99420.04;1743392;82;21012;-72
2022/04/25 12:23:34;;;;;;;8.30;4.25;;;;;;;20.00;49.38;99430.05;1743388;82;21024;-76
2022/04/25 12:26:06;;;;;;;14.43;4.35;;;;;;;19.99;49.36;99427.00;1743468;81;21028;-74
2022/04/25 12:28:39;;;;;;;16.60;9.05;;;;;;;19.99;48.99;99427.00;1740792;82;21031;-74
2022/04/25 12:31:08;;;;;;;11.88;6.03;;;;;;;19.98;49.29;99419.22;1740881;82;21019;-74
2022/04/25 12:33:44;;;;;;;7.60;4.92;;;;;;;19.99;49.47;99413.93;1738622;82;21025;-75